createdAt,value
2022-12-11T00:01:16.847Z,0.80
2022-12-11T00:03:47.798Z,0.80
2022-12-11T00:06:21.356Z,0.80
2022-12-11T00:08:52.566Z,0.80
2022-12-11T00:11:22.760Z,0.80
2022-12-11T00:13:51.187Z,0.80
2022-12-11T00:16:23.814Z,0.80
2022-12-11T00:18:54.705Z,0.80
2022-12-11T00:21:24.123Z,0.90
2022-12-11T00:23:52.186Z,0.90
2022-12-11T00:26:20.336Z,0.90
2022-12-11T00:28:49.369Z,0.80
2022-12-11T00:31:20.219Z,0.80
2022-12-11T00:33:49.458Z,0.70
2022-12-11T00:36:22.261Z,0.70
2022-12-11T00:38:53.776Z,0.70
2022-12-11T00:41:23.227Z,0.70
2022-12-11T00:43:51.875Z,0.70
2022-12-11T00:46:21.518Z,0.70
2022-12-11T00:48:51.014Z,0.70
2022-12-11T00:51:19.690Z,0.60
2022-12-11T00:53:48.069Z,0.60
2022-12-11T00:56:21.582Z,0.60
2022-12-11T00:58:50.585Z,0.60
2022-12-11T01:01:22.665Z,0.60
2022-12-11T01:03:52.072Z,0.60
2022-12-11T01:06:23.497Z,0.60
2022-12-11T01:09:14.297Z,0.50
2022-12-11T01:11:44.063Z,0.50
2022-12-11T01:14:12.853Z,0.60
2022-12-11T01:16:41.055Z,0.60
2022-12-11T01:19:09.162Z,0.50
2022-12-11T01:21:37.209Z,0.50
2022-12-11T01:24:06.346Z,0.50
2022-12-11T01:26:34.468Z,0.60
2022-12-11T01:29:04.107Z,0.60
2022-12-11T01:31:32.245Z,0.70
2022-12-11T01:34:00.279Z,0.70
2022-12-11T01:36:28.482Z,0.70
2022-12-11T01:38:57.296Z,0.70
2022-12-11T01:41:26.225Z,0.70
2022-12-11T01:44:06.017Z,0.60
2022-12-11T01:46:36.548Z,0.60
2022-12-11T01:49:10.077Z,0.50
2022-12-11T01:51:43.528Z,0.50
2022-12-11T01:54:16.023Z,0.50
2022-12-11T01:56:49.010Z,0.50
2022-12-11T01:59:25.730Z,0.50
2022-12-11T02:02:02.139Z,0.50
2022-12-11T02:04:31.496Z,0.50
2022-12-11T02:06:59.875Z,0.50
2022-12-11T02:09:32.473Z,0.50
2022-12-11T02:12:08.800Z,0.40
2022-12-11T02:14:45.129Z,0.30
2022-12-11T02:17:19.674Z,0.30
2022-12-11T02:20:05.633Z,0.30
2022-12-11T02:23:07.206Z,0.40
2022-12-11T02:25:47.873Z,0.40
2022-12-11T02:28:23.387Z,0.40
2022-12-11T02:30:58.226Z,0.30
2022-12-11T02:33:37.308Z,0.30
2022-12-11T02:36:10.407Z,0.20
2022-12-11T02:38:44.079Z,0.20
2022-12-11T02:41:13.537Z,0.20
2022-12-11T02:43:46.710Z,0.20
2022-12-11T02:46:17.712Z,0.20
2022-12-11T02:48:48.522Z,0.30
2022-12-11T02:51:23.050Z,0.30
2022-12-11T02:53:56.758Z,0.30
2022-12-11T02:56:34.546Z,0.20
2022-12-11T02:59:12.233Z,0.20
2022-12-11T03:01:40.414Z,0.20
2022-12-11T03:04:08.618Z,0.10
2022-12-11T03:06:42.689Z,0.10
2022-12-11T03:09:11.174Z,0.00
2022-12-11T03:11:39.236Z,0.00
2022-12-11T03:14:09.609Z,0.00
2022-12-11T03:16:43.520Z,0.00
2022-12-11T03:19:28.490Z,0.00
2022-12-11T03:22:05.921Z,0.00
2022-12-11T03:24:42.169Z,0.00
2022-12-11T03:27:20.726Z,0.00
2022-12-11T03:29:59.300Z,0.00
2022-12-11T03:32:35.568Z,0.00
2022-12-11T03:35:13.636Z,0.00
2022-12-11T03:37:45.435Z,-0.10
2022-12-11T03:40:18.241Z,-0.10
2022-12-11T03:42:50.622Z,-0.10
2022-12-11T03:45:23.668Z,-0.20
2022-12-11T03:47:54.519Z,-0.20
2022-12-11T03:50:25.640Z,-0.20
2022-12-11T03:52:56.260Z,-0.30
2022-12-11T03:55:26.473Z,-0.30
2022-12-11T03:57:54.522Z,-0.30
2022-12-11T04:00:24.185Z,-0.30
2022-12-11T04:03:12.618Z,-0.30
2022-12-11T04:05:42.647Z,-0.30
2022-12-11T04:08:11.370Z,-0.40
2022-12-11T04:10:39.674Z,-0.40
2022-12-11T04:13:08.498Z,-0.40
2022-12-11T04:15:37.875Z,-0.30
2022-12-11T04:18:24.527Z,-0.40
2022-12-11T04:21:12.545Z,-0.40
2022-12-11T04:23:58.157Z,-0.40
2022-12-11T04:26:26.719Z,-0.40
2022-12-11T04:28:54.782Z,-0.40
2022-12-11T04:31:24.353Z,-0.40
2022-12-11T04:33:53.178Z,-0.50
2022-12-11T04:36:21.236Z,-0.60
2022-12-11T04:38:49.286Z,-0.50
2022-12-11T04:41:18.148Z,-0.50
2022-12-11T04:43:46.522Z,-0.50
2022-12-11T04:46:18.628Z,-0.50
2022-12-11T04:48:53.847Z,-0.40
2022-12-11T04:51:25.681Z,-0.40
2022-12-11T04:53:53.826Z,-0.50
2022-12-11T04:56:22.759Z,-0.50
2022-12-11T04:58:51.226Z,-0.50
2022-12-11T05:01:22.363Z,-0.60
2022-12-11T05:03:52.200Z,-0.60
2022-12-11T05:06:20.306Z,-0.50
2022-12-11T05:08:48.376Z,-0.50
2022-12-11T05:11:17.613Z,-0.50
2022-12-11T05:13:46.357Z,-0.60
2022-12-11T05:16:17.868Z,-0.50
2022-12-11T05:18:47.403Z,-0.50
2022-12-11T05:21:17.327Z,-0.50
2022-12-11T05:23:45.437Z,-0.50
2022-12-11T05:26:16.998Z,-0.60
2022-12-11T05:28:46.257Z,-0.60
2022-12-11T05:31:17.767Z,-0.60
2022-12-11T05:33:47.759Z,-0.50
2022-12-11T05:36:21.667Z,-0.50
2022-12-11T05:38:50.438Z,-0.50
2022-12-11T05:41:21.161Z,-0.50
2022-12-11T05:43:49.573Z,-0.60
2022-12-11T05:46:20.657Z,-0.50
2022-12-11T05:48:51.857Z,-0.60
2022-12-11T05:51:22.651Z,-0.50
2022-12-11T05:53:53.893Z,-0.50
2022-12-11T05:56:26.187Z,-0.60
2022-12-11T05:58:55.407Z,-0.60
2022-12-11T06:01:27.694Z,-0.60
2022-12-11T06:03:57.483Z,-0.60
2022-12-11T06:06:28.291Z,-0.60
2022-12-11T06:08:58.377Z,-0.60
2022-12-11T06:11:29.675Z,-0.70
2022-12-11T06:13:58.800Z,-0.60
2022-12-11T06:16:26.953Z,-0.60
2022-12-11T06:18:58.179Z,-0.70
2022-12-11T06:21:30.930Z,-0.60
2022-12-11T06:24:02.098Z,-0.60
2022-12-11T06:26:31.921Z,-0.60
2022-12-11T06:29:00.161Z,-0.60
2022-12-11T06:31:28.553Z,-0.70
2022-12-11T06:33:56.851Z,-0.70
2022-12-11T06:36:27.118Z,-0.70
2022-12-11T06:38:56.507Z,-0.70
2022-12-11T06:41:24.591Z,-0.70
2022-12-11T06:43:52.630Z,-0.80
2022-12-11T06:46:22.252Z,-0.80
2022-12-11T06:48:50.969Z,-0.90
2022-12-11T06:51:22.503Z,-0.90
2022-12-11T06:53:55.995Z,-0.90
2022-12-11T06:56:25.515Z,-0.90
2022-12-11T06:58:54.065Z,-0.90
2022-12-11T07:01:25.889Z,-0.90
2022-12-11T07:03:54.612Z,-0.90
2022-12-11T07:06:23.215Z,-0.90
2022-12-11T07:08:52.734Z,-0.90
2022-12-11T07:11:22.129Z,-0.90
2022-12-11T07:13:50.304Z,-1.00
2022-12-11T07:16:20.044Z,-0.90
2022-12-11T07:18:50.705Z,-0.90
2022-12-11T07:21:20.258Z,-0.90
2022-12-11T07:23:49.723Z,-0.80
2022-12-11T07:26:22.645Z,-0.80
2022-12-11T07:28:51.066Z,-0.80
2022-12-11T07:31:25.044Z,-0.80
2022-12-11T07:33:55.172Z,-0.80
2022-12-11T07:36:23.412Z,-0.80
2022-12-11T07:38:51.667Z,-0.80
2022-12-11T07:41:21.280Z,-0.80
2022-12-11T07:43:54.787Z,-0.80
2022-12-11T07:46:26.906Z,-0.80
2022-12-11T07:48:55.562Z,-0.80
2022-12-11T07:51:27.881Z,-0.80
2022-12-11T07:53:59.463Z,-0.80
2022-12-11T07:56:31.132Z,-0.90
2022-12-11T07:59:00.999Z,-0.80
2022-12-11T08:01:31.941Z,-0.90
2022-12-11T08:04:00.482Z,-0.80
2022-12-11T08:06:32.023Z,-0.80
2022-12-11T08:09:02.550Z,-0.80
2022-12-11T08:11:32.252Z,-0.80
2022-12-11T08:14:01.215Z,-0.70
2022-12-11T08:16:30.484Z,-0.80
2022-12-11T08:18:59.780Z,-0.70
2022-12-11T08:21:29.289Z,-0.70
2022-12-11T08:23:57.876Z,-0.70
2022-12-11T08:26:28.742Z,-0.60
2022-12-11T08:28:59.107Z,-0.60
2022-12-11T08:31:28.064Z,-0.60
2022-12-11T08:33:58.562Z,-0.60
2022-12-11T08:36:27.063Z,-0.50
2022-12-11T08:38:56.819Z,-0.50
2022-12-11T08:41:28.018Z,-0.50
2022-12-11T08:44:00.409Z,-0.60
2022-12-11T08:46:32.323Z,-0.50
2022-12-11T08:49:04.638Z,-0.50
2022-12-11T08:51:33.377Z,-0.40
2022-12-11T08:54:02.448Z,-0.30
2022-12-11T08:56:31.383Z,-0.30
2022-12-11T08:59:04.056Z,-0.40
2022-12-11T09:01:32.711Z,-0.30
2022-12-11T09:04:00.812Z,-0.30
2022-12-11T09:06:33.396Z,-0.30
2022-12-11T09:09:03.273Z,-0.30
2022-12-11T09:11:34.732Z,-0.40
2022-12-11T09:14:07.526Z,-0.40
2022-12-11T09:16:40.174Z,-0.40
2022-12-11T09:19:12.612Z,-0.40
2022-12-11T09:21:41.274Z,-0.40
2022-12-11T09:24:11.896Z,-0.40
2022-12-11T09:26:40.722Z,-0.40
2022-12-11T09:29:12.926Z,-0.50
2022-12-11T09:31:41.886Z,-0.50
2022-12-11T09:34:13.781Z,-0.50
2022-12-11T09:36:44.113Z,-0.40
2022-12-11T09:39:13.929Z,-0.40
2022-12-11T09:41:53.958Z,-0.40
2022-12-11T09:44:35.194Z,-0.40
2022-12-11T09:47:03.438Z,-0.30
2022-12-11T09:49:40.162Z,-0.40
2022-12-11T09:52:15.393Z,-0.40
2022-12-11T09:54:50.804Z,-0.30
2022-12-11T09:57:47.805Z,-0.30
2022-12-11T10:00:26.966Z,-0.40
2022-12-11T10:03:39.326Z,-0.40
2022-12-11T10:06:18.808Z,-0.30
2022-12-11T10:09:01.879Z,-0.30
2022-12-11T10:11:56.665Z,-0.20
2022-12-11T10:14:40.061Z,-0.30
2022-12-11T10:17:16.734Z,-0.40
2022-12-11T10:19:45.311Z,-0.30
2022-12-11T10:22:22.184Z,-0.30
2022-12-11T10:25:11.254Z,-0.20
2022-12-11T10:27:50.852Z,-0.20
2022-12-11T10:30:22.903Z,-0.10
2022-12-11T10:33:03.977Z,-0.20
2022-12-11T10:35:39.397Z,-0.20
2022-12-11T10:38:16.880Z,-0.10
2022-12-11T10:40:47.418Z,-0.10
2022-12-11T10:43:15.641Z,0.10
2022-12-11T10:45:55.806Z,0.20
2022-12-11T10:48:25.688Z,0.20
2022-12-11T10:51:02.013Z,0.30
2022-12-11T10:53:32.507Z,0.20
2022-12-11T10:56:02.754Z,0.20
2022-12-11T10:58:34.380Z,0.20
2022-12-11T11:01:15.183Z,0.20
2022-12-11T11:03:58.728Z,0.20
2022-12-11T11:06:28.358Z,0.10
2022-12-11T11:08:59.960Z,0.10
2022-12-11T11:11:34.247Z,0.20
2022-12-11T11:14:09.302Z,0.20
2022-12-11T11:16:39.726Z,0.10
2022-12-11T11:19:19.557Z,0.10
2022-12-11T11:21:52.822Z,0.00
2022-12-11T11:24:41.296Z,0.10
2022-12-11T11:27:21.246Z,0.10
2022-12-11T11:29:53.522Z,0.00
2022-12-11T11:32:30.226Z,0.00
2022-12-11T11:35:21.196Z,0.00
2022-12-11T11:38:01.931Z,0.00
2022-12-11T11:40:34.477Z,0.00
2022-12-11T11:43:16.616Z,-0.10
2022-12-11T11:45:54.699Z,-0.10
2022-12-11T11:48:37.082Z,-0.10
2022-12-11T11:51:16.687Z,-0.10
2022-12-11T11:53:51.345Z,-0.30
2022-12-11T11:56:24.285Z,-0.30
2022-12-11T11:59:12.254Z,-0.20
2022-12-11T12:01:43.277Z,-0.30
2022-12-11T12:04:13.258Z,-0.20
2022-12-11T12:07:08.768Z,-0.20
2022-12-11T12:09:57.304Z,-0.20
2022-12-11T12:12:40.361Z,-0.10
2022-12-11T12:15:27.217Z,0.00
2022-12-11T12:17:59.091Z,0.00
2022-12-11T12:20:40.703Z,0.00
2022-12-11T12:23:45.358Z,0.00
2022-12-11T12:26:25.779Z,0.10
2022-12-11T12:29:09.792Z,0.00
2022-12-11T12:31:56.972Z,0.00
2022-12-11T12:34:45.438Z,0.20
2022-12-11T12:37:24.686Z,0.30
2022-12-11T12:40:11.777Z,0.30
2022-12-11T12:42:50.232Z,0.40
2022-12-11T12:45:29.736Z,0.40
2022-12-11T12:47:57.876Z,0.40
2022-12-11T12:50:30.450Z,0.40
2022-12-11T12:52:59.947Z,0.30
2022-12-11T12:55:31.951Z,0.30
2022-12-11T12:58:03.433Z,0.30
2022-12-11T13:00:35.672Z,0.30
2022-12-11T13:03:20.222Z,0.30
2022-12-11T13:06:00.015Z,0.30
2022-12-11T13:08:31.970Z,0.30
2022-12-11T13:11:07.321Z,0.30
2022-12-11T13:13:39.885Z,0.20
2022-12-11T13:16:28.660Z,0.30
2022-12-11T13:18:56.745Z,0.30
2022-12-11T13:21:32.904Z,0.30
2022-12-11T13:24:26.836Z,0.20
2022-12-11T13:26:56.446Z,0.20
2022-12-11T13:29:34.580Z,0.20
2022-12-11T13:32:06.704Z,0.20
2022-12-11T13:34:38.785Z,0.20
2022-12-11T13:37:18.213Z,0.20
2022-12-11T13:39:48.526Z,0.20
2022-12-11T13:42:29.272Z,0.10
2022-12-11T13:44:57.610Z,0.10
2022-12-11T13:47:27.546Z,0.10
2022-12-11T13:50:15.697Z,0.10
2022-12-11T13:52:54.741Z,0.10
2022-12-11T13:55:27.411Z,0.10
2022-12-11T13:57:58.291Z,0.10
2022-12-11T14:00:32.117Z,0.10
2022-12-11T14:03:07.303Z,0.10
2022-12-11T14:05:36.670Z,0.10
2022-12-11T14:08:10.237Z,0.10
2022-12-11T14:10:40.980Z,0.10
2022-12-11T14:13:27.184Z,0.00
2022-12-11T14:15:55.953Z,0.00
2022-12-11T14:18:28.275Z,-0.10
2022-12-11T14:20:58.846Z,-0.10
2022-12-11T14:23:29.109Z,-0.10
2022-12-11T14:25:59.851Z,-0.10
2022-12-11T14:28:37.760Z,-0.10
2022-12-11T14:31:07.909Z,-0.10
2022-12-11T14:33:43.046Z,-0.10
2022-12-11T14:36:12.345Z,-0.10
2022-12-11T14:38:46.935Z,-0.20
2022-12-11T14:41:22.412Z,-0.20
2022-12-11T14:43:55.193Z,-0.20
2022-12-11T14:46:33.747Z,-0.30
2022-12-11T14:49:08.531Z,-0.40
2022-12-11T14:51:41.967Z,-0.30
2022-12-11T14:54:28.178Z,-0.30
2022-12-11T14:56:57.219Z,-0.30
2022-12-11T14:59:32.225Z,-0.40
2022-12-11T15:02:03.780Z,-0.40
2022-12-11T15:04:34.466Z,-0.40
2022-12-11T15:07:02.596Z,-0.40
2022-12-11T15:09:40.657Z,-0.40
2022-12-11T15:12:13.686Z,-0.40
2022-12-11T15:14:53.019Z,-0.30
2022-12-11T15:17:22.881Z,-0.30
2022-12-11T15:19:55.321Z,-0.30
2022-12-11T15:22:33.337Z,-0.40
2022-12-11T15:25:02.216Z,-0.40
2022-12-11T15:27:36.772Z,-0.40
2022-12-11T15:30:28.229Z,-0.50
2022-12-11T15:33:34.255Z,-0.50
2022-12-11T15:36:05.649Z,-0.60
2022-12-11T15:38:39.443Z,-0.70
2022-12-11T15:41:14.018Z,-0.80
2022-12-11T15:43:42.555Z,-0.80
2022-12-11T15:46:12.022Z,-0.70
2022-12-11T15:48:40.283Z,-0.70
2022-12-11T15:51:08.387Z,-0.70
2022-12-11T15:53:36.520Z,-0.70
2022-12-11T15:56:04.742Z,-0.70
2022-12-11T15:58:33.525Z,-0.70
2022-12-11T16:01:01.646Z,-0.70
2022-12-11T16:03:31.111Z,-0.70
2022-12-11T16:05:59.455Z,-0.70
2022-12-11T16:08:27.636Z,-0.70
2022-12-11T16:10:56.754Z,-0.70
2022-12-11T16:13:24.927Z,-0.70
2022-12-11T16:15:54.693Z,-0.70
2022-12-11T16:18:26.374Z,-0.70
2022-12-11T16:20:55.798Z,-0.80
2022-12-11T16:23:24.089Z,-0.90
2022-12-11T16:25:52.974Z,-1.00
2022-12-11T16:28:22.210Z,-1.00
2022-12-11T16:30:50.631Z,-1.00
2022-12-11T16:33:19.351Z,-1.00
2022-12-11T16:35:47.473Z,-1.00
2022-12-11T16:38:17.103Z,-1.00
2022-12-11T16:40:45.475Z,-0.90
2022-12-11T16:43:13.544Z,-0.90
2022-12-11T16:45:42.055Z,-0.90
2022-12-11T16:48:11.114Z,-0.90
2022-12-11T16:50:41.595Z,-1.00
2022-12-11T16:53:09.733Z,-1.00
2022-12-11T16:55:40.915Z,-1.00
2022-12-11T16:58:09.488Z,-1.00
2022-12-11T17:00:37.669Z,-1.00
2022-12-11T17:03:06.512Z,-1.00
2022-12-11T17:05:34.583Z,-1.10
2022-12-11T17:08:02.853Z,-1.10
2022-12-11T17:10:31.030Z,-1.10
2022-12-11T17:13:00.603Z,-1.10
2022-12-11T17:15:28.892Z,-1.10
2022-12-11T17:17:57.037Z,-1.10
2022-12-11T17:20:25.169Z,-1.20
2022-12-11T17:22:53.246Z,-1.10
2022-12-11T17:25:22.487Z,-1.10
2022-12-11T17:27:50.797Z,-1.00
2022-12-11T17:30:20.497Z,-1.00
2022-12-11T17:32:50.993Z,-1.10
2022-12-11T17:35:19.315Z,-1.00
2022-12-11T17:37:47.375Z,-1.00
2022-12-11T17:40:15.657Z,-1.00
2022-12-11T17:42:44.026Z,-1.00
2022-12-11T17:45:13.279Z,-1.10
2022-12-11T17:47:43.238Z,-1.10
2022-12-11T17:50:12.103Z,-1.20
2022-12-11T17:52:44.199Z,-1.20
2022-12-11T17:55:13.187Z,-1.30
2022-12-11T17:57:41.428Z,-1.20
2022-12-11T18:00:11.322Z,-1.20
2022-12-11T18:02:42.889Z,-1.20
2022-12-11T18:05:11.895Z,-1.20
2022-12-11T18:07:40.260Z,-1.20
2022-12-11T18:10:09.288Z,-1.20
2022-12-11T18:12:37.495Z,-1.10
2022-12-11T18:15:06.943Z,-1.10
2022-12-11T18:17:35.338Z,-1.10
2022-12-11T18:20:05.869Z,-1.10
2022-12-11T18:22:34.101Z,-1.10
2022-12-11T18:25:09.304Z,-1.10
2022-12-11T18:27:38.418Z,-1.10
2022-12-11T18:30:08.052Z,-1.10
2022-12-11T18:32:36.168Z,-1.10
2022-12-11T18:35:06.557Z,-1.20
2022-12-11T18:37:34.710Z,-1.40
2022-12-11T18:40:02.941Z,-1.40
2022-12-11T18:42:33.371Z,-1.40
2022-12-11T18:45:02.238Z,-1.50
2022-12-11T18:47:30.460Z,-1.60
2022-12-11T18:50:03.920Z,-1.60
2022-12-11T18:52:36.896Z,-1.60
2022-12-11T18:55:06.187Z,-1.80
2022-12-11T18:57:34.339Z,-1.70
2022-12-11T19:00:07.312Z,-1.60
2022-12-11T19:02:36.201Z,-1.40
2022-12-11T19:05:05.283Z,-1.50
2022-12-11T19:07:33.419Z,-1.60
2022-12-11T19:10:03.053Z,-1.60
2022-12-11T19:12:31.194Z,-1.70
2022-12-11T19:14:59.218Z,-1.80
2022-12-11T19:17:27.470Z,-1.90
2022-12-11T19:19:55.675Z,-1.90
2022-12-11T19:22:23.899Z,-2.10
2022-12-11T19:24:51.984Z,-2.00
2022-12-11T19:27:21.467Z,-1.90
2022-12-11T19:29:50.220Z,-1.90
2022-12-11T19:32:18.457Z,-2.00
2022-12-11T19:34:46.544Z,-1.90
2022-12-11T19:37:14.675Z,-1.90
2022-12-11T19:39:42.808Z,-1.90
2022-12-11T19:42:12.399Z,-1.90
2022-12-11T19:44:41.812Z,-2.00
2022-12-11T19:47:09.931Z,-1.90
2022-12-11T19:49:38.115Z,-1.90
2022-12-11T19:52:06.191Z,-1.80
2022-12-11T19:54:34.338Z,-1.80
2022-12-11T19:57:02.459Z,-1.80
2022-12-11T19:59:30.665Z,-1.70
2022-12-11T20:02:00.173Z,-1.90
2022-12-11T20:04:28.244Z,-1.90
2022-12-11T20:06:56.440Z,-1.90
2022-12-11T20:09:25.246Z,-1.80
2022-12-11T20:11:53.380Z,-1.70
2022-12-11T20:14:25.616Z,-1.90
2022-12-11T20:17:14.025Z,-1.90
2022-12-11T20:19:44.866Z,-1.70
2022-12-11T20:22:13.011Z,-1.60
2022-12-11T20:24:41.252Z,-1.50
2022-12-11T20:27:10.062Z,-1.40
2022-12-11T20:29:38.854Z,-1.50
2022-12-11T20:32:11.242Z,-1.40
2022-12-11T20:34:39.835Z,-1.40
2022-12-11T20:37:09.273Z,-1.40
2022-12-11T20:39:37.969Z,-1.30
2022-12-11T20:42:06.301Z,-1.30
2022-12-11T20:44:34.465Z,-1.30
2022-12-11T20:47:02.590Z,-1.30
2022-12-11T20:49:30.739Z,-1.30
2022-12-11T20:51:59.519Z,-1.30
2022-12-11T20:54:29.100Z,-1.50
2022-12-11T20:56:57.326Z,-1.60
2022-12-11T20:59:26.369Z,-1.80
2022-12-11T21:01:54.552Z,-1.60
2022-12-11T21:04:22.826Z,-1.50
2022-12-11T21:06:55.492Z,-1.60
2022-12-11T21:09:28.089Z,-1.60
2022-12-11T21:12:00.657Z,-1.80
2022-12-11T21:14:30.215Z,-2.00
2022-12-11T21:16:59.294Z,-1.90
2022-12-11T21:19:28.118Z,-2.00
2022-12-11T21:21:56.774Z,-2.00
2022-12-11T21:24:29.723Z,-2.20
2022-12-11T21:26:59.815Z,-2.10
2022-12-11T21:29:29.893Z,-2.00
2022-12-11T21:31:58.835Z,-2.00
2022-12-11T21:34:27.009Z,-2.00
2022-12-11T21:36:56.767Z,-1.90
2022-12-11T21:39:26.255Z,-1.80
2022-12-11T21:41:55.866Z,-1.80
2022-12-11T21:47:11.969Z,-1.90
2022-12-11T21:49:40.045Z,-1.90
2022-12-11T21:52:09.284Z,-1.90
2022-12-11T21:54:39.532Z,-2.10
2022-12-11T21:57:09.015Z,-2.20
2022-12-11T21:59:37.139Z,-2.10
2022-12-11T22:02:05.434Z,-2.30
2022-12-11T22:04:33.622Z,-2.30
2022-12-11T22:07:01.687Z,-2.30
2022-12-11T22:09:29.757Z,-2.30
2022-12-11T22:11:58.829Z,-2.40
2022-12-11T22:14:31.253Z,-2.30
2022-12-11T22:17:00.588Z,-2.30
2022-12-11T22:19:32.469Z,-2.40
2022-12-11T22:22:01.055Z,-2.50
2022-12-11T22:24:29.120Z,-2.60
2022-12-11T22:26:57.216Z,-2.60
2022-12-11T22:29:25.413Z,-2.70
2022-12-11T22:31:55.126Z,-2.70
2022-12-11T22:34:23.504Z,-2.90
2022-12-11T22:36:52.279Z,-2.90
2022-12-11T22:39:20.399Z,-3.00
2022-12-11T22:41:48.461Z,-3.00
2022-12-11T22:44:19.599Z,-3.10
2022-12-11T22:46:50.967Z,-3.00
2022-12-11T22:49:21.180Z,-3.00
2022-12-11T22:51:49.921Z,-3.00
2022-12-11T22:54:18.296Z,-3.00
2022-12-11T22:56:46.363Z,-3.10
2022-12-11T22:59:14.431Z,-3.20
2022-12-11T23:01:42.654Z,-3.30
2022-12-11T23:04:10.692Z,-3.30
2022-12-11T23:06:40.518Z,-3.20
2022-12-11T23:09:08.814Z,-3.20
2022-12-11T23:11:39.944Z,-3.10
2022-12-11T23:14:13.790Z,-3.20
2022-12-11T23:16:42.307Z,-3.40
2022-12-11T23:19:11.430Z,-3.40
2022-12-11T23:21:40.971Z,-3.40
2022-12-11T23:24:09.628Z,-3.40
2022-12-11T23:26:38.925Z,-3.40
2022-12-11T23:29:08.279Z,-3.40
2022-12-11T23:31:36.585Z,-3.40
2022-12-11T23:34:04.699Z,-3.40
2022-12-11T23:36:34.633Z,-3.40
2022-12-11T23:39:05.404Z,-3.40
2022-12-11T23:41:33.459Z,-3.40
2022-12-11T23:44:01.565Z,-3.40
2022-12-11T23:46:29.912Z,-3.40
2022-12-11T23:48:58.315Z,-3.40
2022-12-11T23:51:27.327Z,-3.50
2022-12-11T23:53:55.966Z,-3.50
2022-12-11T23:56:30.047Z,-3.50
2022-12-11T23:58:58.824Z,-3.50
